sensor_id;sensor_type;location;lat;lon;timestamp;P1;durP1;ratioP1;P2;durP2;ratioP2
15573;SDS011;7888;46.748;8.102;2024-02-26T00:01:42;0.10;;;0.10;;
15573;SDS011;7888;46.748;8.102;2024-02-26T00:04:09;0.10;;;0.10;;
15573;SDS011;7888;46.748;8.102;2024-02-26T00:06:36;0.23;;;0.10;;
15573;SDS011;7888;46.748;8.102;2024-02-26T00:09:02;0.63;;;0.20;;
15573;SDS011;7888;46.748;8.102;2024-02-26T00:11:30;0.30;;;0.20;;
15573;SDS011;7888;46.748;8.102;2024-02-26T00:13:56;0.23;;;0.23;;
15573;SDS011;7888;46.748;8.102;2024-02-26T00:16:23;0.20;;;0.20;;
15573;SDS011;7888;46.748;8.102;2024-02-26T00:18:49;0.20;;;0.20;;
15573;SDS011;7888;46.748;8.102;2024-02-26T00:21:15;0.13;;;0.10;;
15573;SDS011;7888;46.748;8.102;2024-02-26T00:23:41;0.20;;;0.20;;
15573;SDS011;7888;46.748;8.102;2024-02-26T00:26:07;0.20;;;0.20;;
15573;SDS011;7888;46.748;8.102;2024-02-26T00:28:33;0.40;;;0.40;;
15573;SDS011;7888;46.748;8.102;2024-02-26T00:30:59;0.27;;;0.23;;
15573;SDS011;7888;46.748;8.102;2024-02-26T00:33:24;0.57;;;0.40;;
15573;SDS011;7888;46.748;8.102;2024-02-26T00:35:50;1.77;;;0.60;;
15573;SDS011;7888;46.748;8.102;2024-02-26T00:38:16;0.83;;;0.70;;
15573;SDS011;7888;46.748;8.102;2024-02-26T00:40:42;1.20;;;0.70;;
15573;SDS011;7888;46.748;8.102;2024-02-26T00:43:07;0.80;;;0.70;;
15573;SDS011;7888;46.748;8.102;2024-02-26T00:45:33;0.90;;;0.67;;
15573;SDS011;7888;46.748;8.102;2024-02-26T00:47:59;1.10;;;0.70;;
15573;SDS011;7888;46.748;8.102;2024-02-26T00:50:29;1.43;;;0.77;;
15573;SDS011;7888;46.748;8.102;2024-02-26T00:52:59;0.70;;;0.70;;
15573;SDS011;7888;46.748;8.102;2024-02-26T00:55:26;0.90;;;0.73;;
15573;SDS011;7888;46.748;8.102;2024-02-26T00:57:52;0.97;;;0.80;;
15573;SDS011;7888;46.748;8.102;2024-02-26T01:00:17;1.90;;;1.10;;
15573;SDS011;7888;46.748;8.102;2024-02-26T01:02:43;2.47;;;1.00;;
15573;SDS011;7888;46.748;8.102;2024-02-26T01:05:11;1.00;;;0.90;;
15573;SDS011;7888;46.748;8.102;2024-02-26T01:07:38;0.80;;;0.80;;
15573;SDS011;7888;46.748;8.102;2024-02-26T01:10:05;1.00;;;0.90;;
15573;SDS011;7888;46.748;8.102;2024-02-26T01:12:32;1.80;;;1.20;;
15573;SDS011;7888;46.748;8.102;2024-02-26T01:14:59;1.33;;;1.13;;
15573;SDS011;7888;46.748;8.102;2024-02-26T01:17:26;2.00;;;1.23;;
15573;SDS011;7888;46.748;8.102;2024-02-26T01:19:52;1.67;;;1.10;;
15573;SDS011;7888;46.748;8.102;2024-02-26T01:22:18;0.80;;;0.80;;
15573;SDS011;7888;46.748;8.102;2024-02-26T01:24:44;1.40;;;1.10;;
15573;SDS011;7888;46.748;8.102;2024-02-26T01:27:10;1.57;;;1.20;;
15573;SDS011;7888;46.748;8.102;2024-02-26T01:29:36;1.53;;;1.30;;
15573;SDS011;7888;46.748;8.102;2024-02-26T01:32:02;1.27;;;1.17;;
15573;SDS011;7888;46.748;8.102;2024-02-26T01:34:30;1.60;;;1.20;;
15573;SDS011;7888;46.748;8.102;2024-02-26T01:36:55;2.23;;;1.50;;
15573;SDS011;7888;46.748;8.102;2024-02-26T01:39:21;1.50;;;0.93;;
15573;SDS011;7888;46.748;8.102;2024-02-26T01:41:47;1.80;;;1.10;;
15573;SDS011;7888;46.748;8.102;2024-02-26T01:44:13;1.43;;;1.20;;
15573;SDS011;7888;46.748;8.102;2024-02-26T01:46:39;1.17;;;0.90;;
15573;SDS011;7888;46.748;8.102;2024-02-26T01:49:05;0.77;;;0.60;;
15573;SDS011;7888;46.748;8.102;2024-02-26T01:51:32;0.80;;;0.70;;
15573;SDS011;7888;46.748;8.102;2024-02-26T01:54:00;0.90;;;0.80;;
15573;SDS011;7888;46.748;8.102;2024-02-26T01:56:28;1.33;;;1.03;;
15573;SDS011;7888;46.748;8.102;2024-02-26T01:58:55;0.70;;;0.47;;
15573;SDS011;7888;46.748;8.102;2024-02-26T02:01:22;0.60;;;0.53;;
15573;SDS011;7888;46.748;8.102;2024-02-26T02:03:52;0.30;;;0.30;;
15573;SDS011;7888;46.748;8.102;2024-02-26T02:06:21;0.80;;;0.60;;
15573;SDS011;7888;46.748;8.102;2024-02-26T02:08:47;0.20;;;0.20;;
15573;SDS011;7888;46.748;8.102;2024-02-26T02:11:13;0.40;;;0.30;;
15573;SDS011;7888;46.748;8.102;2024-02-26T02:13:40;0.20;;;0.13;;
15573;SDS011;7888;46.748;8.102;2024-02-26T02:16:06;1.20;;;0.60;;
15573;SDS011;7888;46.748;8.102;2024-02-26T02:18:32;0.50;;;0.50;;
15573;SDS011;7888;46.748;8.102;2024-02-26T02:21:02;0.50;;;0.30;;
15573;SDS011;7888;46.748;8.102;2024-02-26T02:23:28;0.30;;;0.30;;
15573;SDS011;7888;46.748;8.102;2024-02-26T02:25:54;0.60;;;0.50;;
15573;SDS011;7888;46.748;8.102;2024-02-26T02:28:23;0.50;;;0.50;;
15573;SDS011;7888;46.748;8.102;2024-02-26T02:30:52;0.60;;;0.40;;
15573;SDS011;7888;46.748;8.102;2024-02-26T02:33:18;1.07;;;0.60;;
15573;SDS011;7888;46.748;8.102;2024-02-26T02:35:44;0.90;;;0.50;;
15573;SDS011;7888;46.748;8.102;2024-02-26T02:38:10;0.90;;;0.50;;
15573;SDS011;7888;46.748;8.102;2024-02-26T02:40:36;0.37;;;0.30;;
15573;SDS011;7888;46.748;8.102;2024-02-26T02:43:02;0.50;;;0.50;;
15573;SDS011;7888;46.748;8.102;2024-02-26T02:45:29;0.40;;;0.30;;
15573;SDS011;7888;46.748;8.102;2024-02-26T02:47:55;0.30;;;0.20;;
15573;SDS011;7888;46.748;8.102;2024-02-26T02:50:21;0.10;;;0.10;;
15573;SDS011;7888;46.748;8.102;2024-02-26T02:52:47;0.37;;;0.37;;
15573;SDS011;7888;46.748;8.102;2024-02-26T02:55:16;1.50;;;0.50;;
15573;SDS011;7888;46.748;8.102;2024-02-26T02:57:41;0.50;;;0.43;;
15573;SDS011;7888;46.748;8.102;2024-02-26T03:00:10;0.50;;;0.50;;
15573;SDS011;7888;46.748;8.102;2024-02-26T03:02:37;0.60;;;0.60;;
15573;SDS011;7888;46.748;8.102;2024-02-26T03:05:03;2.20;;;0.50;;
15573;SDS011;7888;46.748;8.102;2024-02-26T03:07:30;0.50;;;0.50;;
15573;SDS011;7888;46.748;8.102;2024-02-26T03:09:55;0.50;;;0.50;;
15573;SDS011;7888;46.748;8.102;2024-02-26T03:12:21;0.93;;;0.60;;
15573;SDS011;7888;46.748;8.102;2024-02-26T03:14:47;0.47;;;0.47;;
15573;SDS011;7888;46.748;8.102;2024-02-26T03:17:13;0.97;;;0.57;;
15573;SDS011;7888;46.748;8.102;2024-02-26T03:19:39;0.40;;;0.40;;
15573;SDS011;7888;46.748;8.102;2024-02-26T03:22:05;0.47;;;0.40;;
15573;SDS011;7888;46.748;8.102;2024-02-26T03:24:31;0.43;;;0.40;;
15573;SDS011;7888;46.748;8.102;2024-02-26T03:26:56;1.07;;;0.60;;
15573;SDS011;7888;46.748;8.102;2024-02-26T03:29:22;0.60;;;0.60;;
15573;SDS011;7888;46.748;8.102;2024-02-26T03:31:48;0.87;;;0.53;;
15573;SDS011;7888;46.748;8.102;2024-02-26T03:34:14;0.80;;;0.70;;
15573;SDS011;7888;46.748;8.102;2024-02-26T03:36:40;0.97;;;0.60;;
15573;SDS011;7888;46.748;8.102;2024-02-26T03:39:07;0.67;;;0.67;;
15573;SDS011;7888;46.748;8.102;2024-02-26T03:41:33;0.93;;;0.60;;
15573;SDS011;7888;46.748;8.102;2024-02-26T03:43:59;1.10;;;0.80;;
15573;SDS011;7888;46.748;8.102;2024-02-26T03:46:26;0.80;;;0.80;;
15573;SDS011;7888;46.748;8.102;2024-02-26T03:48:52;1.00;;;0.90;;
15573;SDS011;7888;46.748;8.102;2024-02-26T03:51:18;0.87;;;0.77;;
15573;SDS011;7888;46.748;8.102;2024-02-26T03:53:43;1.10;;;0.70;;
15573;SDS011;7888;46.748;8.102;2024-02-26T03:56:11;1.20;;;0.90;;
15573;SDS011;7888;46.748;8.102;2024-02-26T03:58:38;1.30;;;1.00;;
15573;SDS011;7888;46.748;8.102;2024-02-26T04:01:06;0.93;;;0.90;;
15573;SDS011;7888;46.748;8.102;2024-02-26T04:03:33;1.00;;;0.80;;
15573;SDS011;7888;46.748;8.102;2024-02-26T04:05:59;0.97;;;0.80;;
15573;SDS011;7888;46.748;8.102;2024-02-26T04:08:25;1.27;;;1.10;;
15573;SDS011;7888;46.748;8.102;2024-02-26T04:10:51;1.70;;;1.20;;
15573;SDS011;7888;46.748;8.102;2024-02-26T04:13:17;1.23;;;1.00;;
15573;SDS011;7888;46.748;8.102;2024-02-26T04:15:43;2.13;;;1.00;;
15573;SDS011;7888;46.748;8.102;2024-02-26T04:18:09;1.33;;;1.20;;
15573;SDS011;7888;46.748;8.102;2024-02-26T04:20:35;1.00;;;0.90;;
15573;SDS011;7888;46.748;8.102;2024-02-26T04:23:01;1.10;;;0.90;;
15573;SDS011;7888;46.748;8.102;2024-02-26T04:25:28;1.40;;;0.87;;
15573;SDS011;7888;46.748;8.102;2024-02-26T04:27:54;2.10;;;1.23;;
15573;SDS011;7888;46.748;8.102;2024-02-26T04:30:20;1.20;;;1.10;;
15573;SDS011;7888;46.748;8.102;2024-02-26T04:32:45;1.43;;;1.23;;
15573;SDS011;7888;46.748;8.102;2024-02-26T04:35:11;1.17;;;1.00;;
15573;SDS011;7888;46.748;8.102;2024-02-26T04:37:37;1.30;;;1.10;;
15573;SDS011;7888;46.748;8.102;2024-02-26T04:40:03;1.10;;;1.00;;
15573;SDS011;7888;46.748;8.102;2024-02-26T04:42:29;1.27;;;0.93;;
15573;SDS011;7888;46.748;8.102;2024-02-26T04:44:55;1.33;;;1.00;;
15573;SDS011;7888;46.748;8.102;2024-02-26T04:47:21;1.10;;;1.00;;
15573;SDS011;7888;46.748;8.102;2024-02-26T04:49:47;0.90;;;0.90;;
15573;SDS011;7888;46.748;8.102;2024-02-26T04:52:16;1.10;;;0.93;;
15573;SDS011;7888;46.748;8.102;2024-02-26T04:54:43;1.00;;;0.87;;
15573;SDS011;7888;46.748;8.102;2024-02-26T04:57:09;1.33;;;0.97;;
15573;SDS011;7888;46.748;8.102;2024-02-26T04:59:35;1.20;;;1.10;;
15573;SDS011;7888;46.748;8.102;2024-02-26T05:02:01;1.37;;;1.10;;
15573;SDS011;7888;46.748;8.102;2024-02-26T05:04:27;1.60;;;1.10;;
15573;SDS011;7888;46.748;8.102;2024-02-26T05:06:53;1.20;;;1.10;;
15573;SDS011;7888;46.748;8.102;2024-02-26T05:09:18;2.73;;;1.20;;
15573;SDS011;7888;46.748;8.102;2024-02-26T05:11:45;1.17;;;1.00;;
15573;SDS011;7888;46.748;8.102;2024-02-26T05:14:10;1.30;;;1.00;;
15573;SDS011;7888;46.748;8.102;2024-02-26T05:16:36;1.00;;;0.70;;
15573;SDS011;7888;46.748;8.102;2024-02-26T05:19:02;1.13;;;0.97;;
15573;SDS011;7888;46.748;8.102;2024-02-26T05:21:28;0.90;;;0.80;;
15573;SDS011;7888;46.748;8.102;2024-02-26T05:23:54;1.13;;;0.77;;
15573;SDS011;7888;46.748;8.102;2024-02-26T05:26:20;1.47;;;1.00;;
15573;SDS011;7888;46.748;8.102;2024-02-26T05:28:47;0.87;;;0.83;;
15573;SDS011;7888;46.748;8.102;2024-02-26T05:31:13;1.30;;;1.20;;
15573;SDS011;7888;46.748;8.102;2024-02-26T05:33:39;1.27;;;1.17;;
15573;SDS011;7888;46.748;8.102;2024-02-26T05:36:05;1.40;;;1.30;;
15573;SDS011;7888;46.748;8.102;2024-02-26T05:38:32;1.17;;;1.07;;
15573;SDS011;7888;46.748;8.102;2024-02-26T05:40:58;3.50;;;0.90;;
15573;SDS011;7888;46.748;8.102;2024-02-26T05:43:24;1.43;;;1.07;;
15573;SDS011;7888;46.748;8.102;2024-02-26T05:45:51;1.20;;;1.10;;
15573;SDS011;7888;46.748;8.102;2024-02-26T05:48:17;1.10;;;0.90;;
15573;SDS011;7888;46.748;8.102;2024-02-26T05:50:44;1.40;;;1.20;;
15573;SDS011;7888;46.748;8.102;2024-02-26T05:53:11;1.10;;;1.07;;
15573;SDS011;7888;46.748;8.102;2024-02-26T05:55:37;1.30;;;1.10;;
15573;SDS011;7888;46.748;8.102;2024-02-26T05:58:03;1.20;;;1.10;;
15573;SDS011;7888;46.748;8.102;2024-02-26T06:00:29;1.70;;;1.50;;
15573;SDS011;7888;46.748;8.102;2024-02-26T06:02:55;1.20;;;1.10;;
15573;SDS011;7888;46.748;8.102;2024-02-26T06:05:21;1.53;;;1.30;;
15573;SDS011;7888;46.748;8.102;2024-02-26T06:07:47;1.63;;;1.30;;
15573;SDS011;7888;46.748;8.102;2024-02-26T06:10:12;2.13;;;1.00;;
15573;SDS011;7888;46.748;8.102;2024-02-26T06:12:41;1.10;;;0.93;;
15573;SDS011;7888;46.748;8.102;2024-02-26T06:15:07;2.40;;;1.60;;
15573;SDS011;7888;46.748;8.102;2024-02-26T06:17:34;2.77;;;1.50;;
15573;SDS011;7888;46.748;8.102;2024-02-26T06:20:00;3.37;;;1.70;;
15573;SDS011;7888;46.748;8.102;2024-02-26T06:22:26;2.43;;;1.63;;
15573;SDS011;7888;46.748;8.102;2024-02-26T06:24:52;5.73;;;3.40;;
15573;SDS011;7888;46.748;8.102;2024-02-26T06:27:17;8.50;;;5.03;;
15573;SDS011;7888;46.748;8.102;2024-02-26T06:29:43;7.00;;;4.40;;
15573;SDS011;7888;46.748;8.102;2024-02-26T06:32:09;4.60;;;2.83;;
15573;SDS011;7888;46.748;8.102;2024-02-26T06:34:35;5.43;;;2.40;;
15573;SDS011;7888;46.748;8.102;2024-02-26T06:37:00;2.80;;;2.00;;
15573;SDS011;7888;46.748;8.102;2024-02-26T06:39:28;2.53;;;1.77;;
15573;SDS011;7888;46.748;8.102;2024-02-26T06:41:54;2.40;;;1.83;;
15573;SDS011;7888;46.748;8.102;2024-02-26T06:44:25;2.30;;;1.83;;
15573;SDS011;7888;46.748;8.102;2024-02-26T06:46:56;2.73;;;1.80;;
15573;SDS011;7888;46.748;8.102;2024-02-26T06:49:24;2.63;;;2.00;;
15573;SDS011;7888;46.748;8.102;2024-02-26T06:51:50;4.83;;;3.03;;
15573;SDS011;7888;46.748;8.102;2024-02-26T06:54:15;3.93;;;2.70;;
15573;SDS011;7888;46.748;8.102;2024-02-26T06:56:41;4.30;;;2.63;;
15573;SDS011;7888;46.748;8.102;2024-02-26T06:59:07;2.90;;;2.07;;
15573;SDS011;7888;46.748;8.102;2024-02-26T07:01:33;2.37;;;2.03;;
15573;SDS011;7888;46.748;8.102;2024-02-26T07:03:59;2.27;;;1.57;;
15573;SDS011;7888;46.748;8.102;2024-02-26T07:06:25;2.23;;;1.70;;
15573;SDS011;7888;46.748;8.102;2024-02-26T07:08:52;2.93;;;2.10;;
15573;SDS011;7888;46.748;8.102;2024-02-26T07:11:18;2.40;;;2.00;;
15573;SDS011;7888;46.748;8.102;2024-02-26T07:13:45;1.87;;;1.43;;
15573;SDS011;7888;46.748;8.102;2024-02-26T07:16:11;1.33;;;1.03;;
15573;SDS011;7888;46.748;8.102;2024-02-26T07:18:38;1.67;;;1.30;;
15573;SDS011;7888;46.748;8.102;2024-02-26T07:21:04;2.00;;;1.30;;
15573;SDS011;7888;46.748;8.102;2024-02-26T07:23:30;3.10;;;1.30;;
15573;SDS011;7888;46.748;8.102;2024-02-26T07:25:57;0.90;;;0.90;;
15573;SDS011;7888;46.748;8.102;2024-02-26T07:28:24;1.87;;;0.87;;
15573;SDS011;7888;46.748;8.102;2024-02-26T07:30:49;1.50;;;1.20;;
15573;SDS011;7888;46.748;8.102;2024-02-26T07:33:15;1.23;;;1.10;;
15573;SDS011;7888;46.748;8.102;2024-02-26T07:35:41;1.00;;;0.80;;
15573;SDS011;7888;46.748;8.102;2024-02-26T07:38:07;3.73;;;1.20;;
15573;SDS011;7888;46.748;8.102;2024-02-26T07:40:33;1.10;;;1.00;;
15573;SDS011;7888;46.748;8.102;2024-02-26T07:42:58;0.90;;;0.90;;
15573;SDS011;7888;46.748;8.102;2024-02-26T07:45:24;1.03;;;0.93;;
15573;SDS011;7888;46.748;8.102;2024-02-26T07:47:50;0.80;;;0.80;;
15573;SDS011;7888;46.748;8.102;2024-02-26T07:50:16;2.90;;;1.10;;
15573;SDS011;7888;46.748;8.102;2024-02-26T07:52:43;3.57;;;1.10;;
15573;SDS011;7888;46.748;8.102;2024-02-26T07:55:09;2.20;;;1.00;;
15573;SDS011;7888;46.748;8.102;2024-02-26T07:57:35;2.27;;;1.60;;
15573;SDS011;7888;46.748;8.102;2024-02-26T08:00:05;1.20;;;0.90;;
15573;SDS011;7888;46.748;8.102;2024-02-26T08:02:34;1.47;;;1.10;;
15573;SDS011;7888;46.748;8.102;2024-02-26T08:05:01;1.50;;;0.90;;
15573;SDS011;7888;46.748;8.102;2024-02-26T08:07:26;1.00;;;0.90;;
15573;SDS011;7888;46.748;8.102;2024-02-26T08:09:53;2.53;;;1.20;;
15573;SDS011;7888;46.748;8.102;2024-02-26T08:12:19;1.60;;;0.97;;
15573;SDS011;7888;46.748;8.102;2024-02-26T08:14:45;1.33;;;0.90;;
15573;SDS011;7888;46.748;8.102;2024-02-26T08:17:11;2.77;;;1.20;;
15573;SDS011;7888;46.748;8.102;2024-02-26T08:19:37;1.50;;;1.10;;
15573;SDS011;7888;46.748;8.102;2024-02-26T08:22:03;2.13;;;1.27;;
15573;SDS011;7888;46.748;8.102;2024-02-26T08:24:29;1.83;;;1.10;;
15573;SDS011;7888;46.748;8.102;2024-02-26T08:26:55;2.47;;;1.27;;
15573;SDS011;7888;46.748;8.102;2024-02-26T08:29:21;1.47;;;0.90;;
15573;SDS011;7888;46.748;8.102;2024-02-26T08:31:47;1.63;;;1.00;;
15573;SDS011;7888;46.748;8.102;2024-02-26T08:34:13;1.40;;;1.00;;
15573;SDS011;7888;46.748;8.102;2024-02-26T08:36:38;2.00;;;1.07;;
15573;SDS011;7888;46.748;8.102;2024-02-26T08:39:04;2.27;;;1.00;;
15573;SDS011;7888;46.748;8.102;2024-02-26T08:41:30;1.57;;;1.27;;
15573;SDS011;7888;46.748;8.102;2024-02-26T08:43:56;1.27;;;1.00;;
15573;SDS011;7888;46.748;8.102;2024-02-26T08:46:23;1.20;;;0.90;;
15573;SDS011;7888;46.748;8.102;2024-02-26T08:48:49;2.90;;;1.17;;
15573;SDS011;7888;46.748;8.102;2024-02-26T08:51:14;2.27;;;1.00;;
15573;SDS011;7888;46.748;8.102;2024-02-26T08:53:40;1.73;;;1.27;;
15573;SDS011;7888;46.748;8.102;2024-02-26T08:56:06;2.47;;;1.00;;
15573;SDS011;7888;46.748;8.102;2024-02-26T08:58:31;1.63;;;0.90;;
15573;SDS011;7888;46.748;8.102;2024-02-26T09:00:57;0.93;;;0.80;;
15573;SDS011;7888;46.748;8.102;2024-02-26T09:03:23;2.83;;;0.90;;
15573;SDS011;7888;46.748;8.102;2024-02-26T09:05:49;2.73;;;0.87;;
15573;SDS011;7888;46.748;8.102;2024-02-26T09:08:15;2.20;;;0.80;;
15573;SDS011;7888;46.748;8.102;2024-02-26T09:10:41;0.67;;;0.67;;
15573;SDS011;7888;46.748;8.102;2024-02-26T09:13:07;0.73;;;0.60;;
15573;SDS011;7888;46.748;8.102;2024-02-26T09:15:33;0.80;;;0.50;;
15573;SDS011;7888;46.748;8.102;2024-02-26T09:17:59;0.70;;;0.70;;
15573;SDS011;7888;46.748;8.102;2024-02-26T09:20:24;1.43;;;0.80;;
15573;SDS011;7888;46.748;8.102;2024-02-26T09:22:50;1.80;;;0.40;;
15573;SDS011;7888;46.748;8.102;2024-02-26T09:25:16;0.80;;;0.63;;
15573;SDS011;7888;46.748;8.102;2024-02-26T09:27:43;0.73;;;0.60;;
15573;SDS011;7888;46.748;8.102;2024-02-26T09:30:12;0.70;;;0.60;;
15573;SDS011;7888;46.748;8.102;2024-02-26T09:32:39;2.07;;;0.70;;
15573;SDS011;7888;46.748;8.102;2024-02-26T09:35:05;0.87;;;0.40;;
15573;SDS011;7888;46.748;8.102;2024-02-26T09:37:32;0.40;;;0.40;;
15573;SDS011;7888;46.748;8.102;2024-02-26T09:39:58;1.07;;;0.33;;
15573;SDS011;7888;46.748;8.102;2024-02-26T09:42:25;0.40;;;0.40;;
15573;SDS011;7888;46.748;8.102;2024-02-26T09:44:53;1.37;;;0.90;;
15573;SDS011;7888;46.748;8.102;2024-02-26T09:47:25;0.30;;;0.30;;
15573;SDS011;7888;46.748;8.102;2024-02-26T09:49:56;0.20;;;0.20;;
15573;SDS011;7888;46.748;8.102;2024-02-26T09:52:24;0.30;;;0.30;;
15573;SDS011;7888;46.748;8.102;2024-02-26T09:54:53;0.13;;;0.13;;
15573;SDS011;7888;46.748;8.102;2024-02-26T09:57:19;0.70;;;0.50;;
15573;SDS011;7888;46.748;8.102;2024-02-26T09:59:49;0.20;;;0.20;;
15573;SDS011;7888;46.748;8.102;2024-02-26T10:02:19;1.57;;;0.30;;
15573;SDS011;7888;46.748;8.102;2024-02-26T10:04:46;0.20;;;0.20;;
15573;SDS011;7888;46.748;8.102;2024-02-26T10:07:16;1.33;;;0.40;;
15573;SDS011;7888;46.748;8.102;2024-02-26T10:09:42;0.53;;;0.50;;
15573;SDS011;7888;46.748;8.102;2024-02-26T10:12:08;1.13;;;0.13;;
15573;SDS011;7888;46.748;8.102;2024-02-26T10:14:40;0.20;;;0.10;;
15573;SDS011;7888;46.748;8.102;2024-02-26T10:17:07;0.17;;;0.00;;
15573;SDS011;7888;46.748;8.102;2024-02-26T10:19:44;0.00;;;0.00;;
15573;SDS011;7888;46.748;8.102;2024-02-26T10:22:09;0.10;;;0.10;;
15573;SDS011;7888;46.748;8.102;2024-02-26T10:24:35;1.40;;;0.30;;
15573;SDS011;7888;46.748;8.102;2024-02-26T10:27:02;2.50;;;0.23;;
15573;SDS011;7888;46.748;8.102;2024-02-26T10:29:28;1.80;;;0.10;;
15573;SDS011;7888;46.748;8.102;2024-02-26T10:31:54;1.03;;;0.00;;
15573;SDS011;7888;46.748;8.102;2024-02-26T10:34:21;0.00;;;0.00;;
15573;SDS011;7888;46.748;8.102;2024-02-26T10:36:46;0.00;;;0.00;;
15573;SDS011;7888;46.748;8.102;2024-02-26T10:39:12;0.10;;;0.10;;
15573;SDS011;7888;46.748;8.102;2024-02-26T10:41:42;0.00;;;0.00;;
15573;SDS011;7888;46.748;8.102;2024-02-26T10:44:10;0.00;;;0.00;;
15573;SDS011;7888;46.748;8.102;2024-02-26T10:46:37;0.10;;;0.10;;
15573;SDS011;7888;46.748;8.102;2024-02-26T10:49:07;0.00;;;0.00;;
15573;SDS011;7888;46.748;8.102;2024-02-26T10:51:47;0.00;;;0.00;;
15573;SDS011;7888;46.748;8.102;2024-02-26T10:54:25;0.00;;;0.00;;
15573;SDS011;7888;46.748;8.102;2024-02-26T10:56:54;0.17;;;0.00;;
15573;SDS011;7888;46.748;8.102;2024-02-26T10:59:22;0.00;;;0.00;;
15573;SDS011;7888;46.748;8.102;2024-02-26T11:01:48;0.00;;;0.00;;
15573;SDS011;7888;46.748;8.102;2024-02-26T11:04:16;0.93;;;0.10;;
15573;SDS011;7888;46.748;8.102;2024-02-26T11:06:43;0.10;;;0.10;;
15573;SDS011;7888;46.748;8.102;2024-02-26T11:09:12;0.00;;;0.00;;
15573;SDS011;7888;46.748;8.102;2024-02-26T11:11:40;0.10;;;0.00;;
15573;SDS011;7888;46.748;8.102;2024-02-26T11:14:06;0.10;;;0.10;;
15573;SDS011;7888;46.748;8.102;2024-02-26T11:16:34;0.00;;;0.00;;
15573;SDS011;7888;46.748;8.102;2024-02-26T11:19:02;0.10;;;0.10;;
15573;SDS011;7888;46.748;8.102;2024-02-26T11:21:28;0.00;;;0.00;;
15573;SDS011;7888;46.748;8.102;2024-02-26T11:24:13;0.07;;;0.07;;
15573;SDS011;7888;46.748;8.102;2024-02-26T11:26:48;0.00;;;0.00;;
15573;SDS011;7888;46.748;8.102;2024-02-26T11:29:25;0.00;;;0.00;;
15573;SDS011;7888;46.748;8.102;2024-02-26T11:32:00;0.00;;;0.00;;
15573;SDS011;7888;46.748;8.102;2024-02-26T11:34:27;0.10;;;0.10;;
15573;SDS011;7888;46.748;8.102;2024-02-26T11:36:53;0.00;;;0.00;;
15573;SDS011;7888;46.748;8.102;2024-02-26T11:39:21;0.00;;;0.00;;
15573;SDS011;7888;46.748;8.102;2024-02-26T11:41:48;0.00;;;0.00;;
15573;SDS011;7888;46.748;8.102;2024-02-26T11:44:15;0.90;;;0.00;;
15573;SDS011;7888;46.748;8.102;2024-02-26T11:46:55;0.00;;;0.00;;
15573;SDS011;7888;46.748;8.102;2024-02-26T11:51:52;0.00;;;0.00;;
15573;SDS011;7888;46.748;8.102;2024-02-26T11:57:22;0.10;;;0.10;;
15573;SDS011;7888;46.748;8.102;2024-02-26T12:05:14;0.20;;;0.20;;
15573;SDS011;7888;46.748;8.102;2024-02-26T12:07:53;0.10;;;0.10;;
15573;SDS011;7888;46.748;8.102;2024-02-26T12:10:25;0.47;;;0.37;;
15573;SDS011;7888;46.748;8.102;2024-02-26T12:13:16;0.07;;;0.07;;
15573;SDS011;7888;46.748;8.102;2024-02-26T12:15:43;1.03;;;0.10;;
15573;SDS011;7888;46.748;8.102;2024-02-26T12:18:19;0.00;;;0.00;;
15573;SDS011;7888;46.748;8.102;2024-02-26T12:20:46;0.00;;;0.00;;
15573;SDS011;7888;46.748;8.102;2024-02-26T12:23:15;0.10;;;0.10;;
15573;SDS011;7888;46.748;8.102;2024-02-26T12:25:44;0.00;;;0.00;;
15573;SDS011;7888;46.748;8.102;2024-02-26T12:28:14;0.50;;;0.20;;
15573;SDS011;7888;46.748;8.102;2024-02-26T12:30:40;0.33;;;0.20;;
15573;SDS011;7888;46.748;8.102;2024-02-26T12:33:06;0.10;;;0.10;;
15573;SDS011;7888;46.748;8.102;2024-02-26T12:35:34;0.10;;;0.10;;
15573;SDS011;7888;46.748;8.102;2024-02-26T12:38:01;0.10;;;0.10;;
15573;SDS011;7888;46.748;8.102;2024-02-26T12:40:29;0.17;;;0.17;;
15573;SDS011;7888;46.748;8.102;2024-02-26T12:42:55;0.30;;;0.30;;
15573;SDS011;7888;46.748;8.102;2024-02-26T12:45:21;0.30;;;0.23;;
15573;SDS011;7888;46.748;8.102;2024-02-26T12:47:47;0.23;;;0.23;;
15573;SDS011;7888;46.748;8.102;2024-02-26T12:50:15;0.57;;;0.20;;
15573;SDS011;7888;46.748;8.102;2024-02-26T12:52:43;0.40;;;0.40;;
15573;SDS011;7888;46.748;8.102;2024-02-26T12:55:13;1.57;;;0.40;;
15573;SDS011;7888;46.748;8.102;2024-02-26T12:57:43;0.30;;;0.20;;
15573;SDS011;7888;46.748;8.102;2024-02-26T13:00:14;0.20;;;0.20;;
15573;SDS011;7888;46.748;8.102;2024-02-26T13:02:44;0.70;;;0.57;;
15573;SDS011;7888;46.748;8.102;2024-02-26T13:05:12;1.43;;;0.50;;
15573;SDS011;7888;46.748;8.102;2024-02-26T13:07:40;1.00;;;0.60;;
15573;SDS011;7888;46.748;8.102;2024-02-26T13:10:08;1.67;;;0.40;;
15573;SDS011;7888;46.748;8.102;2024-02-26T13:12:37;3.03;;;0.30;;
15573;SDS011;7888;46.748;8.102;2024-02-26T13:15:16;0.47;;;0.40;;
15573;SDS011;7888;46.748;8.102;2024-02-26T13:17:44;1.57;;;0.50;;
15573;SDS011;7888;46.748;8.102;2024-02-26T13:20:11;0.53;;;0.53;;
15573;SDS011;7888;46.748;8.102;2024-02-26T13:22:39;1.23;;;0.77;;
15573;SDS011;7888;46.748;8.102;2024-02-26T13:25:06;2.30;;;0.60;;
15573;SDS011;7888;46.748;8.102;2024-02-26T13:27:33;1.77;;;0.80;;
15573;SDS011;7888;46.748;8.102;2024-02-26T13:30:02;1.00;;;0.73;;
15573;SDS011;7888;46.748;8.102;2024-02-26T13:32:36;1.27;;;0.60;;
15573;SDS011;7888;46.748;8.102;2024-02-26T13:35:10;0.93;;;0.70;;
15573;SDS011;7888;46.748;8.102;2024-02-26T13:37:38;0.93;;;0.83;;
15573;SDS011;7888;46.748;8.102;2024-02-26T13:40:05;1.43;;;0.80;;
15573;SDS011;7888;46.748;8.102;2024-02-26T13:42:33;0.60;;;0.60;;
15573;SDS011;7888;46.748;8.102;2024-02-26T13:44:59;1.37;;;0.50;;
15573;SDS011;7888;46.748;8.102;2024-02-26T13:47:25;0.50;;;0.50;;
15573;SDS011;7888;46.748;8.102;2024-02-26T13:49:51;0.57;;;0.50;;
15573;SDS011;7888;46.748;8.102;2024-02-26T13:52:17;1.80;;;0.80;;
15573;SDS011;7888;46.748;8.102;2024-02-26T13:54:45;0.70;;;0.57;;
15573;SDS011;7888;46.748;8.102;2024-02-26T13:57:11;0.50;;;0.50;;
15573;SDS011;7888;46.748;8.102;2024-02-26T13:59:37;1.67;;;0.70;;
15573;SDS011;7888;46.748;8.102;2024-02-26T14:02:07;2.00;;;0.70;;
15573;SDS011;7888;46.748;8.102;2024-02-26T14:04:34;2.03;;;0.90;;
15573;SDS011;7888;46.748;8.102;2024-02-26T14:07:00;0.73;;;0.73;;
15573;SDS011;7888;46.748;8.102;2024-02-26T14:09:26;1.00;;;0.80;;
15573;SDS011;7888;46.748;8.102;2024-02-26T14:11:51;2.20;;;0.87;;
15573;SDS011;7888;46.748;8.102;2024-02-26T14:14:17;0.60;;;0.60;;
15573;SDS011;7888;46.748;8.102;2024-02-26T14:16:43;1.10;;;0.70;;
15573;SDS011;7888;46.748;8.102;2024-02-26T14:19:08;1.23;;;1.00;;
15573;SDS011;7888;46.748;8.102;2024-02-26T14:21:34;1.10;;;0.70;;
15573;SDS011;7888;46.748;8.102;2024-02-26T14:24:00;0.80;;;0.73;;
15573;SDS011;7888;46.748;8.102;2024-02-26T14:26:26;1.17;;;1.07;;
15573;SDS011;7888;46.748;8.102;2024-02-26T14:28:51;1.40;;;0.97;;
15573;SDS011;7888;46.748;8.102;2024-02-26T14:31:17;1.33;;;1.00;;
15573;SDS011;7888;46.748;8.102;2024-02-26T14:33:44;1.17;;;0.87;;
15573;SDS011;7888;46.748;8.102;2024-02-26T14:36:10;2.60;;;0.87;;
15573;SDS011;7888;46.748;8.102;2024-02-26T14:38:37;1.70;;;1.20;;
15573;SDS011;7888;46.748;8.102;2024-02-26T14:41:04;2.00;;;0.83;;
15573;SDS011;7888;46.748;8.102;2024-02-26T14:43:30;1.23;;;0.90;;
15573;SDS011;7888;46.748;8.102;2024-02-26T14:45:57;0.90;;;0.80;;
15573;SDS011;7888;46.748;8.102;2024-02-26T14:48:24;1.03;;;0.83;;
15573;SDS011;7888;46.748;8.102;2024-02-26T14:50:50;1.10;;;0.90;;
15573;SDS011;7888;46.748;8.102;2024-02-26T14:53:15;1.13;;;0.80;;
15573;SDS011;7888;46.748;8.102;2024-02-26T14:55:42;2.07;;;0.80;;
15573;SDS011;7888;46.748;8.102;2024-02-26T14:58:08;1.10;;;0.90;;
15573;SDS011;7888;46.748;8.102;2024-02-26T15:00:36;1.37;;;0.80;;
15573;SDS011;7888;46.748;8.102;2024-02-26T15:03:03;2.10;;;0.80;;
15573;SDS011;7888;46.748;8.102;2024-02-26T15:05:29;1.00;;;0.90;;
15573;SDS011;7888;46.748;8.102;2024-02-26T15:07:55;1.07;;;0.80;;
15573;SDS011;7888;46.748;8.102;2024-02-26T15:10:20;0.80;;;0.80;;